Time;durP1;ratioP1;P1;durP2;ratioP2;P2;SDS_P1;SDS_P2;PMS_P1;PMS_P2;Temp;Humidity;BMP_temperature;BMP_pressure;BME280_temperature;BME280_humidity;BME280_pressure;Samples;Min_cycle;Max_cycle;Signal;HPM_P1;HPM_P2
2022/07/09 00:01:45;;;;;;;45.75;19.40;;;18.00;99.90;;;;;;5290341;28;20024;-72
2022/07/09 00:04:15;;;;;;;49.03;19.95;;;17.90;99.90;;;;;;5290364;28;20019;-72
2022/07/09 00:06:46;;;;;;;47.03;18.58;;;17.60;99.90;;;;;;5290202;28;20110;-73
2022/07/09 00:09:17;;;;;;;45.67;19.17;;;17.80;99.90;;;;;;5290124;28;20086;-73
2022/07/09 00:11:49;;;;;;;40.05;17.27;;;17.70;99.90;;;;;;5290105;28;20035;-71
2022/07/09 00:14:20;;;;;;;37.03;17.35;;;17.70;99.90;;;;;;5290068;28;20035;-72
2022/07/09 00:16:51;;;;;;;39.03;16.48;;;17.70;99.90;;;;;;5290198;28;20030;-72
2022/07/09 00:19:22;;;;;;;41.20;17.58;;;17.80;99.90;;;;;;5289495;28;20035;-72
2022/07/09 00:21:53;;;;;;;41.70;17.33;;;17.80;99.90;;;;;;5289711;28;20063;-73
2022/07/09 00:24:24;;;;;;;37.25;17.08;;;17.70;99.90;;;;;;5290091;28;20032;-72
2022/07/09 00:26:55;;;;;;;38.92;16.42;;;17.70;99.90;;;;;;5290190;28;20027;-72
2022/07/09 00:29:25;;;;;;;30.17;14.90;;;17.50;99.90;;;;;;5290020;28;20094;-76
2022/07/09 00:31:56;;;;;;;33.97;15.35;;;17.50;99.90;;;;;;5289805;28;20087;-76
2022/07/09 00:34:27;;;;;;;31.35;14.35;;;17.70;99.90;;;;;;5289990;28;20031;-73
2022/07/09 00:36:58;;;;;;;34.78;16.30;;;17.60;99.90;;;;;;5289939;28;20075;-72
2022/07/09 00:39:29;;;;;;;24.00;13.82;;;17.40;99.90;;;;;;5289799;28;20028;-72
2022/07/09 00:42:10;;;;;;;30.88;13.75;;;17.40;99.90;;;;;;5289868;28;20034;-75
2022/07/09 00:44:41;;;;;;;34.85;14.85;;;17.50;99.90;;;;;;5289867;28;20024;-73
2022/07/09 00:47:12;;;;;;;26.17;13.80;;;17.70;99.90;;;;;;5289804;28;20024;-74
2022/07/09 00:49:44;;;;;;;28.48;13.13;;;17.60;99.90;;;;;;5289953;28;20455;-75
2022/07/09 00:52:17;;;;;;;22.83;12.32;;;17.80;99.90;;;;;;5289666;28;20063;-76
2022/07/09 00:54:48;;;;;;;30.05;13.60;;;17.60;99.90;;;;;;5288603;28;20046;-76
2022/07/09 00:57:19;;;;;;;26.73;12.52;;;17.70;99.90;;;;;;5289762;28;20032;-72
2022/07/09 00:59:51;;;;;;;30.65;12.50;;;17.70;99.90;;;;;;5288454;28;20024;-75
2022/07/09 01:02:23;;;;;;;24.42;12.80;;;17.70;99.90;;;;;;5289883;28;20024;-75
2022/07/09 01:04:53;;;;;;;23.90;12.73;;;17.80;99.90;;;;;;5289744;28;20027;-73
2022/07/09 01:07:24;;;;;;;28.02;13.27;;;17.70;99.90;;;;;;5289648;28;20080;-73
2022/07/09 01:09:55;;;;;;;26.92;12.88;;;17.60;99.90;;;;;;5289498;28;20028;-72
2022/07/09 01:12:26;;;;;;;25.70;12.95;;;17.40;99.90;;;;;;5289582;28;20035;-72
2022/07/09 01:14:57;;;;;;;24.92;11.98;;;17.40;99.90;;;;;;5289545;28;20475;-72
2022/07/09 01:17:28;;;;;;;30.67;12.52;;;17.50;99.90;;;;;;5289511;28;20016;-75
2022/07/09 01:19:59;;;;;;;25.38;12.75;;;17.60;99.90;;;;;;5289354;28;20035;-76
2022/07/09 01:22:30;;;;;;;22.80;12.15;;;17.30;99.90;;;;;;5289308;28;20047;-78
2022/07/09 01:25:04;;;;;;;29.27;13.23;;;17.40;99.90;;;;;;5289448;28;20039;-79
2022/07/09 01:27:36;;;;;;;31.98;14.40;;;17.30;99.90;;;;;;5289260;28;20149;-80
2022/07/09 01:30:07;;;;;;;30.33;14.75;;;17.40;99.90;;;;;;5289524;28;20364;-79
2022/07/09 01:32:38;;;;;;;30.33;13.45;;;17.40;99.90;;;;;;5291773;28;20050;-79
2022/07/09 01:35:09;;;;;;;31.17;13.98;;;17.50;99.90;;;;;;5293217;28;20019;-80
2022/07/09 01:37:40;;;;;;;28.45;13.50;;;17.30;99.90;;;;;;5293167;28;20035;-79
2022/07/09 01:40:11;;;;;;;29.00;13.68;;;17.30;99.90;;;;;;5292759;28;20027;-79
2022/07/09 01:42:43;;;;;;;24.27;12.07;;;17.30;99.90;;;;;;5292898;28;20024;-71
2022/07/09 01:45:15;;;;;;;24.42;12.27;;;17.30;99.90;;;;;;5292949;28;20026;-79
2022/07/09 01:47:46;;;;;;;31.95;12.65;;;17.30;99.90;;;;;;5292756;28;20023;-77
2022/07/09 01:50:17;;;;;;;24.38;13.30;;;17.30;99.90;;;;;;5292843;28;20012;-75
2022/07/09 01:52:48;;;;;;;21.70;11.88;;;16.90;99.90;;;;;;5292830;28;20040;-73
2022/07/09 01:55:23;;;;;;;23.65;12.95;;;17.00;99.90;;;;;;5292735;28;20035;-79
2022/07/09 01:57:58;;;;;;;18.95;10.80;;;16.90;99.90;;;;;;5292609;28;20027;-79
2022/07/09 02:00:33;;;;;;;23.35;12.40;;;17.10;99.90;;;;;;5292602;28;20502;-80
2022/07/09 02:03:10;;;;;;;22.30;12.45;;;17.00;99.90;;;;;;5292636;28;20027;-80
2022/07/09 02:05:45;;;;;;;19.77;11.65;;;17.10;99.90;;;;;;5292855;28;20028;-80
2022/07/09 02:08:16;;;;;;;24.73;11.30;;;17.10;99.90;;;;;;5292595;28;20020;-75
2022/07/09 02:10:47;;;;;;;18.85;11.48;;;17.20;99.90;;;;;;5292483;28;20474;-73
2022/07/09 02:13:18;;;;;;;20.92;11.82;;;16.90;99.90;;;;;;5292569;27;20042;-73
2022/07/09 02:15:48;;;;;;;18.10;10.07;;;16.80;99.90;;;;;;5292500;28;20053;-72
2022/07/09 02:18:19;;;;;;;19.02;10.05;;;17.20;99.90;;;;;;5292302;28;20344;-72
2022/07/09 02:20:50;;;;;;;20.88;9.48;;;17.20;99.90;;;;;;5292149;28;20119;-74
2022/07/09 02:23:23;;;;;;;17.13;9.27;;;17.30;99.90;;;;;;5292291;27;20056;-72
2022/07/09 02:25:54;;;;;;;18.48;9.75;;;17.20;99.90;;;;;;5292416;28;20459;-73
2022/07/09 02:28:25;;;;;;;22.92;10.25;;;17.10;99.90;;;;;;5292212;28;20084;-75
2022/07/09 02:30:57;;;;;;;18.30;10.20;;;17.30;99.90;;;;;;5292230;28;20024;-72
2022/07/09 02:33:30;;;;;;;20.20;10.05;;;17.20;99.90;;;;;;5292060;28;20036;-72
2022/07/09 02:36:01;;;;;;;16.83;9.38;;;17.30;99.90;;;;;;5291916;28;20038;-73
2022/07/09 02:38:32;;;;;;;15.80;9.25;;;17.40;99.90;;;;;;5291736;28;20019;-78
2022/07/09 02:41:03;;;;;;;14.70;9.55;;;17.30;99.90;;;;;;5291811;28;20467;-77
2022/07/09 02:43:34;;;;;;;17.50;9.65;;;17.40;99.90;;;;;;5291566;28;20031;-78
2022/07/09 02:46:05;;;;;;;21.38;8.95;;;17.40;99.90;;;;;;5291777;28;20064;-75
2022/07/09 02:48:36;;;;;;;17.05;9.70;;;17.40;99.90;;;;;;5291571;28;20038;-74
2022/07/09 02:51:07;;;;;;;18.33;10.50;;;17.20;99.90;;;;;;5291598;28;20071;-73
2022/07/09 02:53:38;;;;;;;19.35;10.93;;;17.30;99.90;;;;;;5290340;28;20035;-73
2022/07/09 02:56:09;;;;;;;24.80;11.73;;;17.20;99.90;;;;;;5291630;28;20020;-73
2022/07/09 02:58:40;;;;;;;23.73;12.48;;;17.10;99.90;;;;;;5291509;28;20374;-73
2022/07/09 03:01:10;;;;;;;23.52;11.50;;;17.20;99.90;;;;;;5291591;28;20019;-72
2022/07/09 03:03:41;;;;;;;23.80;12.32;;;17.10;99.90;;;;;;5291655;28;20027;-78
2022/07/09 03:06:13;;;;;;;24.23;12.23;;;17.20;99.90;;;;;;5291500;28;20209;-76
2022/07/09 03:08:44;;;;;;;25.10;12.20;;;17.00;99.90;;;;;;5291376;28;20042;-74
2022/07/09 03:11:14;;;;;;;22.33;11.82;;;17.00;99.90;;;;;;5291175;28;20371;-72
2022/07/09 03:13:45;;;;;;;22.13;11.65;;;17.10;99.90;;;;;;5291082;28;20096;-75
2022/07/09 03:16:16;;;;;;;18.77;11.23;;;17.30;99.90;;;;;;5291122;28;20027;-76
2022/07/09 03:18:47;;;;;;;23.17;11.55;;;17.30;99.90;;;;;;5291028;28;20032;-72
2022/07/09 03:21:18;;;;;;;20.60;11.02;;;17.30;99.90;;;;;;5290878;27;20089;-78
2022/07/09 03:23:49;;;;;;;21.80;11.45;;;17.30;99.90;;;;;;5291143;28;20030;-74
2022/07/09 03:26:20;;;;;;;23.10;11.55;;;17.10;99.90;;;;;;5290928;27;20467;-74
2022/07/09 03:28:50;;;;;;;18.17;11.75;;;17.20;99.90;;;;;;5290858;28;20026;-75
2022/07/09 03:31:21;;;;;;;20.88;11.80;;;17.30;99.90;;;;;;5290955;28;20103;-73
2022/07/09 03:33:53;;;;;;;16.23;11.10;;;17.30;99.90;;;;;;5290864;28;20111;-74
2022/07/09 03:36:24;;;;;;;28.67;14.20;;;17.40;99.90;;;;;;5290807;28;20025;-77
2022/07/09 03:38:54;;;;;;;28.50;16.08;;;17.40;99.90;;;;;;5290518;28;20028;-73
2022/07/09 03:41:26;;;;;;;30.45;16.45;;;17.50;99.90;;;;;;5290803;28;20023;-73
2022/07/09 03:43:57;;;;;;;34.78;17.27;;;17.30;99.90;;;;;;5290687;28;20099;-75
2022/07/09 03:46:29;;;;;;;24.67;16.17;;;17.30;99.90;;;;;;5290761;28;20048;-73
2022/07/09 03:48:59;;;;;;;23.65;14.13;;;17.50;99.90;;;;;;5290576;28;20047;-75
2022/07/09 03:51:30;;;;;;;21.27;13.32;;;17.40;99.90;;;;;;5290477;28;20024;-74
2022/07/09 03:54:01;;;;;;;19.48;12.25;;;17.70;99.90;;;;;;5289717;28;20047;-73
2022/07/09 03:56:32;;;;;;;23.02;12.90;;;17.80;99.90;;;;;;5290574;28;20020;-75
2022/07/09 03:59:03;;;;;;;15.45;10.75;;;18.00;99.90;;;;;;5290353;28;20055;-75
2022/07/09 04:01:34;;;;;;;15.57;10.80;;;18.00;99.90;;;;;;5290375;28;20024;-72
2022/07/09 04:04:05;;;;;;;19.42;11.13;;;18.40;99.90;;;;;;5290319;28;20063;-73
2022/07/09 04:06:36;;;;;;;16.70;10.68;;;18.70;99.90;;;;;;5290334;28;20055;-74
2022/07/09 04:09:07;;;;;;;17.00;10.68;;;18.80;99.90;;;;;;5290187;28;20055;-74
2022/07/09 04:11:38;;;;;;;17.67;10.13;;;19.20;99.90;;;;;;5290274;28;20042;-74
2022/07/09 04:14:08;;;;;;;14.75;9.30;;;19.40;99.90;;;;;;5290809;28;20027;-74
2022/07/09 04:16:39;;;;;;;19.70;9.32;;;19.60;99.90;;;;;;5290281;28;20360;-72
2022/07/09 04:19:10;;;;;;;12.32;9.25;;;19.40;99.90;;;;;;5290131;28;20030;-75
2022/07/09 04:21:41;;;;;;;12.38;9.13;;;19.80;99.90;;;;;;5289949;28;20399;-73
2022/07/09 04:24:15;;;;;;;14.90;9.35;;;19.90;99.90;;;;;;5290021;28;20399;-74
2022/07/09 04:26:46;;;;;;;17.52;12.07;;;20.10;99.90;;;;;;5290135;28;20024;-75
2022/07/09 04:29:17;;;;;;;14.88;10.82;;;20.30;99.90;;;;;;5290096;28;20034;-72
2022/07/09 04:31:48;;;;;;;20.10;8.93;;;20.60;99.90;;;;;;5289965;28;20430;-75
2022/07/09 04:34:19;;;;;;;10.70;7.85;;;20.90;99.90;;;;;;5289994;28;20031;-73
2022/07/09 04:36:49;;;;;;;17.02;7.32;;;21.00;99.90;;;;;;5290153;28;20027;-72
2022/07/09 04:39:22;;;;;;;15.70;10.95;;;21.00;99.90;;;;;;5289771;28;20081;-73
2022/07/09 04:41:53;;;;;;;20.52;11.95;;;21.30;99.90;;;;;;5290044;28;20019;-72
2022/07/09 04:44:24;;;;;;;20.38;12.68;;;21.30;99.90;;;;;;5290112;28;20031;-78
2022/07/09 04:46:55;;;;;;;23.25;12.55;;;21.70;99.90;;;;;;5289890;28;20062;-73
2022/07/09 04:49:26;;;;;;;21.00;16.00;;;21.80;99.90;;;;;;5289808;28;20103;-72
2022/07/09 04:51:57;;;;;;;21.08;14.93;;;22.00;99.90;;;;;;5289844;28;20020;-74
2022/07/09 04:54:27;;;;;;;15.85;10.73;;;22.00;99.90;;;;;;5289745;28;20040;-77
2022/07/09 04:56:58;;;;;;;18.02;10.30;;;22.20;99.90;;;;;;5288602;28;20493;-79
2022/07/09 04:59:29;;;;;;;15.00;8.25;;;22.40;99.90;;;;;;5289745;28;20107;-78
2022/07/09 05:02:00;;;;;;;7.63;5.80;;;22.60;99.90;;;;;;5289709;28;20038;-77
2022/07/09 05:04:31;;;;;;;9.20;5.45;;;22.70;99.90;;;;;;5289753;28;20106;-79
2022/07/09 05:07:02;;;;;;;9.15;4.90;;;22.90;99.90;;;;;;5292948;28;20607;-79
2022/07/09 05:09:33;;;;;;;7.78;4.43;;;23.20;99.90;;;;;;5292448;28;20031;-79
2022/07/09 05:12:05;;;;;;;7.55;4.53;;;23.30;99.90;;;;;;5293754;28;20030;-78
2022/07/09 05:14:39;;;;;;;11.13;4.82;;;23.30;99.90;;;;;;5293929;28;20115;-78
2022/07/09 05:17:10;;;;;;;8.60;4.90;;;23.30;99.90;;;;;;5293771;28;20043;-77
2022/07/09 05:19:40;;;;;;;11.40;5.00;;;23.60;99.90;;;;;;5293501;28;20070;-73
2022/07/09 05:22:11;;;;;;;9.95;4.30;;;23.60;99.90;;;;;;5293191;28;20058;-73
2022/07/09 05:24:43;;;;;;;7.20;4.90;;;23.80;99.90;;;;;;5293512;28;20032;-78
2022/07/09 05:27:14;;;;;;;8.43;4.97;;;24.00;99.90;;;;;;5293353;28;20048;-71
2022/07/09 05:29:45;;;;;;;9.40;4.68;;;24.30;99.90;;;;;;5293333;28;20062;-76
2022/07/09 05:32:16;;;;;;;6.57;4.32;;;24.30;99.90;;;;;;5293227;27;20076;-76
2022/07/09 05:34:47;;;;;;;9.60;4.05;;;24.30;99.90;;;;;;5293310;28;20032;-78
2022/07/09 05:37:17;;;;;;;7.25;4.32;;;24.30;99.90;;;;;;5293158;28;20023;-73
2022/07/09 05:39:48;;;;;;;10.38;4.22;;;24.40;99.90;;;;;;5293089;28;20084;-73
2022/07/09 05:42:19;;;;;;;9.05;4.38;;;24.70;99.90;;;;;;5293117;28;20114;-73
2022/07/09 05:44:50;;;;;;;6.82;3.70;;;24.60;99.90;;;;;;5293268;28;20034;-73
2022/07/09 05:47:21;;;;;;;6.28;3.90;;;24.50;99.90;;;;;;5293178;28;20459;-78
2022/07/09 05:49:52;;;;;;;6.95;4.00;;;24.40;99.90;;;;;;5293045;27;20349;-76
2022/07/09 05:52:22;;;;;;;4.72;4.07;;;24.40;99.90;;;;;;5292685;28;20088;-74
2022/07/09 05:54:53;;;;;;;8.20;4.68;;;24.60;99.90;;;;;;5291849;28;20039;-76
2022/07/09 05:57:25;;;;;;;6.28;3.90;;;24.50;99.90;;;;;;5292795;28;20027;-74
2022/07/09 05:59:56;;;;;;;7.82;4.10;;;24.40;99.90;;;;;;5292764;28;20032;-78
2022/07/09 06:02:27;;;;;;;5.15;3.85;;;24.50;99.90;;;;;;5292700;28;20027;-72
2022/07/09 06:04:57;;;;;;;7.15;3.53;;;24.60;99.90;;;;;;5292850;28;20455;-76
2022/07/09 06:07:28;;;;;;;5.50;4.38;;;24.80;99.90;;;;;;5292530;27;20016;-77
2022/07/09 06:09:59;;;;;;;8.55;4.43;;;24.80;99.90;;;;;;5291315;28;20176;-75
2022/07/09 06:12:30;;;;;;;7.60;4.80;;;24.30;99.90;;;;;;5292517;28;20024;-73
2022/07/09 06:15:01;;;;;;;6.35;4.03;;;24.30;99.90;;;;;;5292442;28;20027;-73
2022/07/09 06:17:32;;;;;;;5.95;4.25;;;24.60;99.90;;;;;;5291666;28;20015;-73
2022/07/09 06:20:04;;;;;;;6.13;3.55;;;25.10;99.90;;;;;;5292434;28;20510;-72
2022/07/09 06:22:35;;;;;;;6.68;3.58;;;25.30;99.90;;;;;;5292181;28;20068;-74
2022/07/09 06:25:06;;;;;;;7.13;3.90;;;25.40;99.90;;;;;;5292124;28;20487;-76
2022/07/09 06:27:37;;;;;;;6.78;3.90;;;25.30;99.90;;;;;;5292286;28;20020;-72
2022/07/09 06:30:09;;;;;;;6.35;3.80;;;25.40;99.90;;;;;;5292236;28;20022;-73
2022/07/09 06:32:39;;;;;;;11.40;4.10;;;25.30;99.90;;;;;;5291914;28;20036;-72
2022/07/09 06:35:10;;;;;;;7.70;4.60;;;25.60;99.90;;;;;;5292230;28;20027;-77
2022/07/09 06:37:41;;;;;;;6.22;4.07;;;26.00;99.90;;;;;;5292193;28;20027;-78
2022/07/09 06:40:12;;;;;;;7.47;3.53;;;26.00;99.90;;;;;;5291989;28;20368;-75
2022/07/09 06:42:43;;;;;;;10.25;3.53;;;25.80;99.90;;;;;;5292077;28;20388;-71
2022/07/09 06:45:14;;;;;;;7.15;4.50;;;25.50;99.90;;;;;;5291916;28;20153;-79
2022/07/09 06:47:45;;;;;;;7.07;4.55;;;24.90;99.90;;;;;;5290472;28;20032;-72
2022/07/09 06:50:16;;;;;;;12.45;4.60;;;25.20;99.90;;;;;;5291670;28;20027;-73
2022/07/09 06:52:47;;;;;;;10.63;4.43;;;24.80;99.90;;;;;;5289272;28;20387;-79
2022/07/09 06:55:18;;;;;;;9.77;3.90;;;25.30;99.90;;;;;;5291843;28;20094;-81
2022/07/09 06:57:48;;;;;;;11.90;4.10;;;25.30;99.90;;;;;;5291673;28;20111;-72
2022/07/09 07:00:19;;;;;;;8.02;4.30;;;25.00;99.90;;;;;;5291565;28;20371;-80
2022/07/09 07:02:50;;;;;;;17.45;4.40;;;24.80;99.90;;;;;;5291389;28;20027;-72
2022/07/09 07:05:21;;;;;;;11.15;4.60;;;25.40;99.90;;;;;;5291542;28;20028;-72
2022/07/09 07:07:52;;;;;;;7.22;4.38;;;25.50;99.90;;;;;;5291332;28;20031;-81
2022/07/09 07:10:23;;;;;;;9.52;4.00;;;25.80;99.90;;;;;;5291448;28;20619;-79
2022/07/09 07:12:55;;;;;;;12.90;3.60;;;26.00;99.90;;;;;;5291199;28;20391;-75
2022/07/09 07:15:26;;;;;;;8.40;3.95;;;26.90;99.90;;;;;;5291122;28;20039;-75
2022/07/09 07:17:57;;;;;;;10.07;4.35;;;26.50;99.90;;;;;;5291222;28;20032;-72
2022/07/09 07:20:28;;;;;;;12.35;3.80;;;25.80;99.90;;;;;;5289526;28;20028;-74
2022/07/09 07:22:59;;;;;;;12.93;4.00;;;25.50;99.90;;;;;;5290992;28;20058;-73
2022/07/09 07:38:38;;;;;;;10.30;4.05;;;25.20;99.90;;;;;;5308720;27;20454;-80
2022/07/09 07:41:09;;;;;;;11.20;4.60;;;25.20;99.90;;;;;;5290265;28;20031;-77
2022/07/09 07:43:40;;;;;;;13.05;4.32;;;25.00;99.90;;;;;;5308999;28;20028;-86
2022/07/09 07:46:11;;;;;;;9.65;4.55;;;25.40;99.90;;;;;;5309215;28;20019;-82
2022/07/09 07:48:42;;;;;;;9.70;4.10;;;25.10;99.90;;;;;;5308549;28;20084;-82
2022/07/09 07:51:12;;;;;;;6.85;3.90;;;25.20;99.90;;;;;;5290177;28;20473;-82
2022/07/09 07:53:43;;;;;;;8.65;3.85;;;25.30;99.90;;;;;;5290076;28;20049;-82
2022/07/09 07:56:14;;;;;;;9.90;4.18;;;25.80;99.90;;;;;;5308443;28;20080;-79
2022/07/09 07:58:45;;;;;;;8.07;3.97;;;25.90;99.90;;;;;;5308297;28;20034;-78
2022/07/09 08:01:15;;;;;;;8.63;4.03;;;25.60;99.90;;;;;;5308227;28;20084;-81
2022/07/09 08:03:46;;;;;;;12.65;4.35;;;25.70;99.90;;;;;;5299884;28;20406;-79
2022/07/09 08:06:17;;;;;;;10.05;3.80;;;26.40;99.90;;;;;;5287208;28;20425;-86
2022/07/09 08:08:48;;;;;;;9.32;3.53;;;26.60;99.90;;;;;;5287007;28;20032;-76
2022/07/09 08:11:19;;;;;;;11.77;4.20;;;26.70;99.90;;;;;;5286935;28;20024;-81
2022/07/09 08:13:51;;;;;;;9.57;4.30;;;27.30;99.90;;;;;;5287091;28;20482;-77
2022/07/09 08:16:22;;;;;;;8.13;3.63;;;27.50;99.90;;;;;;5286943;28;20020;-79
2022/07/09 08:18:53;;;;;;;12.98;3.58;;;26.90;99.90;;;;;;5286723;28;20111;-77
2022/07/09 08:21:23;;;;;;;11.23;4.00;;;26.90;99.90;;;;;;5286720;28;20623;-77
2022/07/09 08:23:55;;;;;;;10.98;4.53;;;26.70;99.90;;;;;;5286395;28;20596;-79
2022/07/09 08:26:28;;;;;;;9.55;4.15;;;26.20;99.90;;;;;;5285222;28;20036;-77
2022/07/09 08:28:59;;;;;;;11.05;4.68;;;26.40;99.90;;;;;;5286633;28;20012;-78
2022/07/09 08:31:30;;;;;;;14.90;4.78;;;26.10;99.90;;;;;;5307497;27;20126;-85
2022/07/09 08:34:01;;;;;;;12.50;4.40;;;26.90;99.90;;;;;;5307702;27;20083;-77
2022/07/09 08:36:32;;;;;;;12.93;4.80;;;26.50;99.90;;;;;;5307295;28;20504;-77
2022/07/09 08:39:03;;;;;;;9.88;4.57;;;26.20;99.90;;;;;;5296397;28;20028;-76
2022/07/09 08:41:33;;;;;;;18.38;4.90;;;26.20;99.90;;;;;;5293281;28;20031;-76
2022/07/09 08:44:05;;;;;;;9.38;5.00;;;25.90;99.90;;;;;;5293270;27;20016;-76
2022/07/09 08:46:36;;;;;;;11.13;4.38;;;25.60;99.90;;;;;;5293417;28;20040;-80
2022/07/09 08:49:08;;;;;;;9.43;4.30;;;26.00;99.90;;;;;;5293373;28;20120;-76
2022/07/09 08:51:41;;;;;;;19.38;5.05;;;25.80;99.90;;;;;;5293105;28;20157;-77
2022/07/09 08:54:13;;;;;;;12.88;5.07;;;26.40;99.90;;;;;;5293130;28;20015;-76
2022/07/09 08:56:44;;;;;;;12.95;5.05;;;25.80;99.90;;;;;;5292903;28;20028;-76
2022/07/09 08:59:15;;;;;;;13.05;4.82;;;25.50;99.90;;;;;;5292873;28;20057;-76
2022/07/09 09:01:46;;;;;;;7.60;4.70;;;26.10;99.90;;;;;;5293006;28;20032;-76
2022/07/09 09:04:18;;;;;;;13.90;5.10;;;26.20;99.90;;;;;;5291549;28;20019;-76
2022/07/09 09:06:50;;;;;;;15.50;5.10;;;26.30;99.90;;;;;;5292619;28;20118;-76
2022/07/09 09:09:21;;;;;;;10.05;4.15;;;26.30;99.90;;;;;;5291507;28;20471;-76
2022/07/09 09:11:55;;;;;;;10.20;3.83;;;26.10;99.90;;;;;;5291459;28;20030;-76
2022/07/09 09:14:29;;;;;;;14.43;4.40;;;25.60;99.90;;;;;;5292732;28;20026;-76
2022/07/09 09:17:11;;;;;;;16.42;4.80;;;25.50;99.90;;;;;;5291005;28;20034;-78
2022/07/09 09:19:42;;;;;;;15.57;4.25;;;25.40;99.90;;;;;;5292692;28;20061;-76
2022/07/09 09:22:17;;;;;;;11.18;4.47;;;25.40;99.90;;;;;;5292553;28;20466;-77
2022/07/09 09:24:51;;;;;;;15.65;4.85;;;25.50;99.90;;;;;;5291204;28;20111;-76
2022/07/09 09:27:30;;;;;;;12.10;4.82;;;25.40;99.90;;;;;;5292324;28;20031;-76
2022/07/09 09:30:01;;;;;;;12.13;4.88;;;25.40;99.90;;;;;;5291052;28;20031;-76
2022/07/09 09:32:32;;;;;;;8.52;4.38;;;25.20;99.90;;;;;;5292430;28;20027;-80
2022/07/09 09:35:03;;;;;;;11.77;4.35;;;25.60;99.90;;;;;;5292291;28;20038;-77
2022/07/09 09:37:34;;;;;;;16.40;3.83;;;25.60;99.90;;;;;;5291988;28;20050;-76
2022/07/09 09:40:12;;;;;;;10.63;4.00;;;25.20;99.90;;;;;;5290840;28;20111;-77
2022/07/09 09:42:45;;;;;;;12.13;4.40;;;25.30;99.90;;;;;;5290906;28;20034;-77
2022/07/09 09:45:16;;;;;;;12.13;4.35;;;25.50;99.90;;;;;;5292050;28;20028;-76
2022/07/09 09:47:49;;;;;;;6.75;3.38;;;26.20;99.90;;;;;;5291937;28;20031;-80
2022/07/09 09:50:21;;;;;;;12.02;3.33;;;27.20;99.90;;;;;;5290907;28;20058;-76
2022/07/09 09:52:54;;;;;;;11.48;3.45;;;27.40;99.90;;;;;;5292213;28;20023;-77
2022/07/09 09:55:32;;;;;;;9.35;3.65;;;26.50;99.90;;;;;;5291906;28;20030;-76
2022/07/09 09:58:05;;;;;;;75.13;6.00;;;26.00;99.90;;;;;;5291716;28;20023;-81
2022/07/09 10:00:36;;;;;;;19.73;3.80;;;25.70;99.90;;;;;;5290394;28;20031;-76
2022/07/09 10:03:10;;;;;;;9.05;3.47;;;25.80;99.90;;;;;;5290404;28;20020;-76
2022/07/09 10:05:41;;;;;;;10.73;4.20;;;26.10;99.90;;;;;;5291763;28;20024;-76
2022/07/09 10:08:12;;;;;;;16.80;4.18;;;26.20;99.90;;;;;;5291419;28;20115;-77
2022/07/09 10:11:01;;;;;;;9.57;3.97;;;26.00;99.90;;;;;;5290280;28;20202;-82
2022/07/09 10:13:31;;;;;;;16.77;4.33;;;25.80;99.90;;;;;;5291792;28;20084;-82
2022/07/09 10:16:02;;;;;;;8.02;3.85;;;25.80;99.90;;;;;;5291450;28;20261;-77
2022/07/09 10:18:33;;;;;;;13.05;3.97;;;25.80;99.90;;;;;;5291332;28;20032;-76
2022/07/09 10:21:04;;;;;;;10.48;3.83;;;26.00;99.90;;;;;;5291610;28;20051;-77
2022/07/09 10:23:48;;;;;;;13.73;4.72;;;26.20;99.90;;;;;;5291496;28;20031;-76
2022/07/09 10:26:18;;;;;;;13.05;4.50;;;26.30;99.90;;;;;;5291302;28;20115;-76
2022/07/09 10:28:49;;;;;;;9.63;3.97;;;26.20;99.90;;;;;;5291108;28;20106;-77
2022/07/09 10:31:21;;;;;;;11.07;3.85;;;26.00;99.90;;;;;;5291129;28;20027;-76
2022/07/09 10:34:06;;;;;;;13.52;4.03;;;26.50;99.90;;;;;;5291331;28;20028;-81
2022/07/09 10:36:37;;;;;;;11.02;3.45;;;26.80;99.90;;;;;;5290744;28;20050;-77
2022/07/09 10:39:13;;;;;;;15.00;4.20;;;27.40;99.90;;;;;;5290837;28;20036;-76
2022/07/09 10:41:44;;;;;;;13.68;3.80;;;27.30;99.90;;;;;;5289641;28;20099;-81
2022/07/09 10:44:26;;;;;;;10.52;4.10;;;27.30;99.90;;;;;;5289540;28;20118;-81
2022/07/09 10:46:58;;;;;;;12.70;4.10;;;27.00;99.90;;;;;;5269842;28;20114;-76
2022/07/09 10:49:29;;;;;;;11.38;3.47;;;26.80;99.90;;;;;;5269939;28;20471;-77
2022/07/09 10:51:59;;;;;;;9.07;3.47;;;27.10;99.90;;;;;;5268446;28;20103;-82
2022/07/09 10:54:31;;;;;;;11.10;3.70;;;27.00;99.90;;;;;;5271965;28;20111;-77
2022/07/09 10:57:02;;;;;;;11.10;3.83;;;26.50;99.90;;;;;;5270461;28;20027;-76
2022/07/09 10:59:32;;;;;;;12.30;3.63;;;26.10;99.90;;;;;;5269468;28;20020;-81
2022/07/09 11:02:03;;;;;;;11.48;3.83;;;26.20;99.90;;;;;;5269857;28;20386;-83
2022/07/09 11:04:34;;;;;;;10.70;4.22;;;26.50;99.90;;;;;;5271368;28;20372;-84
2022/07/09 11:07:05;;;;;;;11.48;3.60;;;26.40;99.90;;;;;;5269622;28;20112;-87
2022/07/09 11:09:37;;;;;;;10.82;4.15;;;26.70;99.90;;;;;;5269235;28;20475;-85
2022/07/09 11:12:08;;;;;;;9.35;3.60;;;26.50;99.90;;;;;;5272800;28;20099;-85
2022/07/09 11:14:48;;;;;;;11.73;4.15;;;26.30;99.90;;;;;;5287456;28;20027;-78
2022/07/09 11:17:20;;;;;;;12.73;3.63;;;26.40;99.90;;;;;;5287933;28;20035;-79
2022/07/09 11:19:51;;;;;;;8.57;4.00;;;26.40;99.90;;;;;;5286484;28;20027;-79
2022/07/09 11:22:22;;;;;;;11.27;3.63;;;26.70;99.90;;;;;;5288382;28;20020;-78
2022/07/09 11:24:54;;;;;;;11.30;3.60;;;26.90;99.90;;;;;;5288648;28;20020;-78
2022/07/09 11:27:25;;;;;;;10.80;3.80;;;27.20;99.90;;;;;;5288039;28;20042;-79
2022/07/09 11:30:02;;;;;;;7.40;3.17;;;27.40;99.90;;;;;;5288155;28;20035;-78
2022/07/09 11:32:34;;;;;;;7.97;3.13;;;27.90;99.90;;;;;;5286754;28;20386;-86
2022/07/09 11:35:07;;;;;;;8.90;3.58;;;27.50;99.90;;;;;;5286631;28;20032;-85
2022/07/09 11:37:46;;;;;;;9.43;3.10;;;26.70;99.90;;;;;;5287667;28;20080;-77
2022/07/09 11:40:17;;;;;;;14.20;3.40;;;26.90;99.90;;;;;;5288174;28;20072;-86
2022/07/09 11:55:31;;;;;;;11.57;3.45;;;26.70;99.90;;;;;;5304662;27;20401;-82
2022/07/09 11:58:08;;;;;;;11.05;3.67;;;27.30;99.90;;;;;;5305360;28;20047;-80
2022/07/09 12:00:40;;;;;;;13.30;4.78;;;27.30;99.90;;;;;;5300519;27;20051;-78
2022/07/09 12:03:11;;;;;;;8.70;3.17;;;27.10;99.90;;;;;;5303646;27;20023;-72
2022/07/09 12:05:42;;;;;;;19.40;3.88;;;27.40;99.90;;;;;;5304316;27;20129;-79
2022/07/09 12:08:13;;;;;;;11.40;3.72;;;26.50;99.90;;;;;;5304245;27;20012;-74
2022/07/09 12:10:44;;;;;;;8.38;3.70;;;26.20;99.90;;;;;;5300773;27;20112;-79
2022/07/09 12:13:15;;;;;;;7.40;3.30;;;26.50;99.90;;;;;;5304437;27;20023;-77
2022/07/09 12:15:45;;;;;;;7.20;2.92;;;27.00;99.90;;;;;;5304361;27;20030;-80
2022/07/09 12:18:17;;;;;;;11.82;3.50;;;27.10;99.90;;;;;;5303634;27;20094;-80
2022/07/09 12:20:47;;;;;;;9.00;2.90;;;27.50;99.90;;;;;;5304488;27;20031;-80
2022/07/09 12:23:18;;;;;;;10.05;3.38;;;27.70;99.90;;;;;;5299918;27;20038;-83
2022/07/09 12:25:49;;;;;;;11.23;3.25;;;26.70;99.90;;;;;;5304087;27;20039;-72
2022/07/09 12:28:20;;;;;;;11.40;3.53;;;27.20;99.90;;;;;;5292969;28;20043;-76
2022/07/09 12:30:50;;;;;;;10.43;3.70;;;26.80;99.90;;;;;;5303911;27;20032;-72
2022/07/09 12:33:21;;;;;;;8.70;3.05;;;27.40;99.90;;;;;;5296781;28;20031;-71
2022/07/09 12:35:52;;;;;;;11.65;3.58;;;26.70;99.90;;;;;;5304101;27;20031;-73
2022/07/09 12:38:23;;;;;;;9.52;3.15;;;26.20;99.90;;;;;;5303668;27;20510;-72
2022/07/09 12:40:53;;;;;;;8.73;2.92;;;26.70;99.90;;;;;;5303878;28;20106;-74
2022/07/09 12:43:24;;;;;;;8.70;3.00;;;27.30;99.90;;;;;;5304453;27;20059;-71
2022/07/09 12:45:55;;;;;;;8.95;3.03;;;26.30;99.90;;;;;;5304139;27;20027;-79
2022/07/09 12:48:26;;;;;;;9.75;2.92;;;26.30;99.90;;;;;;5303687;27;21292;-73
2022/07/09 12:50:56;;;;;;;12.27;3.60;;;26.60;99.90;;;;;;5304057;28;20071;-72
2022/07/09 12:53:27;;;;;;;8.90;3.15;;;26.10;99.90;;;;;;5303144;27;20050;-73
2022/07/09 12:55:58;;;;;;;10.93;3.50;;;26.00;99.90;;;;;;5290830;27;20035;-72
2022/07/09 12:58:29;;;;;;;12.63;3.40;;;26.50;99.90;;;;;;5289053;28;20084;-73
2022/07/09 13:01:00;;;;;;;12.38;3.08;;;26.20;99.90;;;;;;5289444;28;20019;-74
2022/07/09 13:03:30;;;;;;;10.75;3.22;;;26.10;99.90;;;;;;5289554;28;20444;-79
2022/07/09 13:06:01;;;;;;;7.97;3.00;;;26.60;99.90;;;;;;5289302;28;20073;-71
2022/07/09 13:08:32;;;;;;;9.05;3.20;;;26.90;99.90;;;;;;5289687;28;20024;-72
2022/07/09 13:11:03;;;;;;;8.35;3.00;;;26.70;99.90;;;;;;5289914;28;20050;-74
2022/07/09 13:13:34;;;;;;;7.68;3.20;;;26.90;99.90;;;;;;5289174;28;20031;-73
2022/07/09 13:16:04;;;;;;;11.43;3.05;;;26.80;99.90;;;;;;5289490;28;20102;-71
2022/07/09 13:18:35;;;;;;;10.68;3.20;;;26.70;99.90;;;;;;5289490;28;20469;-71
2022/07/09 13:21:06;;;;;;;13.93;2.88;;;27.00;99.90;;;;;;5289777;28;20023;-72
2022/07/09 13:23:37;;;;;;;7.57;3.05;;;26.90;99.90;;;;;;5289155;28;20040;-79